Time;durP1;ratioP1;P1;durP2;ratioP2;P2;SDS_P1;SDS_P2;PMS_P1;PMS_P2;Temp;Humidity;BMP_temperature;BMP_pressure;BME280_temperature;BME280_humidity;BME280_pressure;Samples;Min_cycle;Max_cycle;Signal;HPM_P1;HPM_P2
2022/09/21 00:01:30;;;;;;;1.92;0.60;;;;;;;;;;4998365;28;20042;-64
2022/09/21 00:03:58;;;;;;;2.30;0.65;;;;;;;;;;4999283;28;20139;-64
2022/09/21 00:06:25;;;;;;;4.25;0.80;;;;;;;;;;4997488;28;20049;-65
2022/09/21 00:08:53;;;;;;;2.80;0.90;;;;;;;;;;4979336;28;20110;-64
2022/09/21 00:11:25;;;;;;;3.33;0.70;;;;;;;;;;4998201;28;20046;-65
2022/09/21 00:13:53;;;;;;;2.35;0.70;;;;;;;;;;4997925;28;20530;-66
2022/09/21 00:16:21;;;;;;;2.47;0.75;;;;;;;;;;4998564;28;21768;-69
2022/09/21 00:19:08;;;;;;;2.25;0.70;;;;;;;;;;5001534;28;20045;-64
2022/09/21 00:21:55;;;;;;;6.57;0.93;;;;;;;;;;4971556;28;20081;-65
2022/09/21 00:24:22;;;;;;;2.65;0.70;;;;;;;;;;4978552;28;20117;-69
2022/09/21 00:26:51;;;;;;;2.00;0.65;;;;;;;;;;4976652;28;20043;-66
2022/09/21 00:29:18;;;;;;;3.47;0.75;;;;;;;;;;4982577;28;20065;-66
2022/09/21 00:31:44;;;;;;;3.78;0.80;;;;;;;;;;4981569;28;20082;-66
2022/09/21 00:34:11;;;;;;;2.47;0.70;;;;;;;;;;4982669;28;20060;-64
2022/09/21 00:36:38;;;;;;;3.20;1.00;;;;;;;;;;4963071;28;20053;-65
2022/09/21 00:39:09;;;;;;;2.92;0.85;;;;;;;;;;4980186;28;20042;-66
2022/09/21 00:41:36;;;;;;;3.28;0.80;;;;;;;;;;4989140;28;20055;-65
2022/09/21 00:44:21;;;;;;;4.30;0.85;;;;;;;;;;4980730;28;20037;-68
2022/09/21 00:47:10;;;;;;;5.07;1.17;;;;;;;;;;4946010;28;20294;-66
2022/09/21 00:49:37;;;;;;;3.30;1.13;;;;;;;;;;4966145;28;21455;-66
2022/09/21 00:52:25;;;;;;;3.65;1.10;;;;;;;;;;4939173;28;20082;-65
2022/09/21 00:55:23;;;;;;;2.38;0.80;;;;;;;;;;4958098;28;20043;-66
2022/09/21 00:57:53;;;;;;;2.88;0.90;;;;;;;;;;4924978;28;20133;-66
2022/09/21 01:00:19;;;;;;;5.40;0.80;;;;;;;;;;4957795;28;20073;-67
2022/09/21 01:02:47;;;;;;;2.38;0.85;;;;;;;;;;4948629;28;20043;-65
2022/09/21 01:05:13;;;;;;;2.35;0.68;;;;;;;;;;4939870;28;20049;-67
2022/09/21 01:07:42;;;;;;;2.63;0.80;;;;;;;;;;4955876;28;20037;-64
2022/09/21 01:10:11;;;;;;;3.13;1.05;;;;;;;;;;4956363;28;20109;-65
2022/09/21 01:12:40;;;;;;;1.90;0.77;;;;;;;;;;4957613;28;20179;-66
2022/09/21 01:15:23;;;;;;;3.22;0.90;;;;;;;;;;4956983;28;20059;-66
2022/09/21 01:17:50;;;;;;;2.53;0.80;;;;;;;;;;4957709;28;21014;-66
2022/09/21 01:20:26;;;;;;;2.45;0.88;;;;;;;;;;4959544;28;20047;-66
2022/09/21 01:23:05;;;;;;;2.95;0.75;;;;;;;;;;4964562;28;20045;-65
2022/09/21 01:25:42;;;;;;;2.85;1.00;;;;;;;;;;4987274;28;20042;-64
2022/09/21 01:28:36;;;;;;;4.90;1.23;;;;;;;;;;5002772;28;20038;-65
2022/09/21 01:31:04;;;;;;;2.83;1.10;;;;;;;;;;5001560;28;20038;-66
2022/09/21 01:33:39;;;;;;;3.53;1.13;;;;;;;;;;5003704;28;20050;-65
2022/09/21 01:36:09;;;;;;;4.43;1.20;;;;;;;;;;5006359;28;20046;-65
2022/09/21 01:38:38;;;;;;;4.25;1.30;;;;;;;;;;5000201;28;20392;-66
2022/09/21 01:41:06;;;;;;;7.60;1.33;;;;;;;;;;5000791;28;20048;-66
2022/09/21 01:43:43;;;;;;;6.70;1.65;;;;;;;;;;5000318;28;20038;-64
2022/09/21 01:46:18;;;;;;;6.07;1.40;;;;;;;;;;5001985;28;20046;-65
2022/09/21 01:48:47;;;;;;;3.92;1.20;;;;;;;;;;5001034;28;20300;-64
2022/09/21 01:51:15;;;;;;;7.60;1.27;;;;;;;;;;5001409;28;20514;-64
2022/09/21 01:53:51;;;;;;;7.50;2.53;;;;;;;;;;5001397;28;20064;-64
2022/09/21 01:56:17;;;;;;;4.90;1.10;;;;;;;;;;5018314;28;20033;-66
2022/09/21 01:58:53;;;;;;;2.97;1.05;;;;;;;;;;4999258;28;20430;-62
2022/09/21 02:01:22;;;;;;;5.20;1.17;;;;;;;;;;5000603;28;20100;-64
2022/09/21 02:03:49;;;;;;;4.43;1.42;;;;;;;;;;4998835;28;20035;-65
2022/09/21 02:06:16;;;;;;;6.18;1.50;;;;;;;;;;5000138;28;20034;-64
2022/09/21 02:08:44;;;;;;;6.40;1.60;;;;;;;;;;5000818;28;20046;-64
2022/09/21 02:11:14;;;;;;;5.25;1.35;;;;;;;;;;4999523;28;20605;-63
2022/09/21 02:13:45;;;;;;;3.97;1.10;;;;;;;;;;4998797;28;20042;-62
2022/09/21 02:16:29;;;;;;;3.08;1.17;;;;;;;;;;4982243;28;20054;-61
2022/09/21 02:19:17;;;;;;;5.78;1.58;;;;;;;;;;5005908;28;20124;-64
2022/09/21 02:22:04;;;;;;;4.07;1.35;;;;;;;;;;5006283;28;20391;-63
2022/09/21 02:24:30;;;;;;;8.57;1.58;;;;;;;;;;5013122;28;20422;-64
2022/09/21 02:27:09;;;;;;;3.95;1.20;;;;;;;;;;5001657;28;20100;-63
2022/09/21 02:29:54;;;;;;;5.15;1.30;;;;;;;;;;4999777;28;20388;-63
2022/09/21 02:32:24;;;;;;;8.05;1.25;;;;;;;;;;4997739;28;20538;-64
2022/09/21 02:34:57;;;;;;;5.05;1.40;;;;;;;;;;4999402;28;20400;-61
2022/09/21 02:37:23;;;;;;;;;;;;;;;;;;5001172;28;20049;-64
2022/09/21 02:40:03;;;;;;;4.78;2.00;;;;;;;;;;5000779;28;19917;-65
2022/09/21 02:42:35;;;;;;;6.78;2.67;;;;;;;;;;4999177;28;20045;-62
2022/09/21 02:45:07;;;;;;;7.10;2.05;;;;;;;;;;4998776;28;20049;-63
2022/09/21 02:47:42;;;;;;;7.97;1.75;;;;;;;;;;4999261;28;20068;-64
2022/09/21 02:50:19;;;;;;;4.13;1.42;;;;;;;;;;4998629;28;20121;-64
2022/09/21 02:52:45;;;;;;;7.40;2.60;;;;;;;;;;4998805;28;20058;-64
2022/09/21 02:55:13;;;;;;;5.63;1.58;;;;;;;;;;4999642;28;20410;-64
2022/09/21 02:57:40;;;;;;;4.57;1.92;;;;;;;;;;4998624;28;20034;-64
2022/09/21 03:00:07;;;;;;;5.13;2.22;;;;;;;;;;4998112;28;20069;-67
2022/09/21 03:02:41;;;;;;;6.35;1.63;;;;;;;;;;4995497;28;20034;-64
2022/09/21 03:05:09;;;;;;;6.05;1.30;;;;;;;;;;4997061;28;20046;-64
2022/09/21 03:07:36;;;;;;;3.58;1.30;;;;;;;;;;4996657;28;20046;-64
2022/09/21 03:10:03;;;;;;;5.72;1.17;;;;;;;;;;4997274;28;20046;-64
2022/09/21 03:12:31;;;;;;;4.90;1.42;;;;;;;;;;4995814;28;20107;-63
2022/09/21 03:14:59;;;;;;;3.72;1.40;;;;;;;;;;4992864;28;20054;-65
2022/09/21 03:17:27;;;;;;;5.45;1.38;;;;;;;;;;5002033;28;20072;-66
2022/09/21 03:19:54;;;;;;;5.60;1.58;;;;;;;;;;4997478;28;20460;-66
2022/09/21 03:22:22;;;;;;;3.92;1.60;;;;;;;;;;4995222;28;20411;-64
2022/09/21 03:24:48;;;;;;;8.93;2.70;;;;;;;;;;4994341;28;20043;-64
2022/09/21 03:27:16;;;;;;;9.80;2.22;;;;;;;;;;4980439;28;20042;-63
2022/09/21 03:29:43;;;;;;;8.65;1.90;;;;;;;;;;4996806;28;20042;-64
2022/09/21 03:32:09;;;;;;;3.58;1.52;;;;;;;;;;4995713;28;20073;-65
2022/09/21 03:34:36;;;;;;;4.90;1.80;;;;;;;;;;4996288;28;20088;-64
2022/09/21 03:37:04;;;;;;;8.52;2.25;;;;;;;;;;4996706;28;20252;-65
2022/09/21 03:39:30;;;;;;;5.18;1.95;;;;;;;;;;4998994;28;20635;-64
2022/09/21 03:41:57;;;;;;;7.18;2.30;;;;;;;;;;4998366;28;20034;-63
2022/09/21 03:44:25;;;;;;;5.63;2.10;;;;;;;;;;4997645;28;20046;-62
2022/09/21 03:46:52;;;;;;;4.10;1.92;;;;;;;;;;4998450;28;20038;-65
2022/09/21 03:49:19;;;;;;;4.82;2.22;;;;;;;;;;4997658;28;20141;-64
2022/09/21 03:51:46;;;;;;;7.38;1.95;;;;;;;;;;4979346;28;20073;-65
2022/09/21 03:54:13;;;;;;;6.20;1.88;;;;;;;;;;4998555;28;20046;-66
2022/09/21 03:56:39;;;;;;;8.07;1.92;;;;;;;;;;4997586;28;20037;-65
2022/09/21 03:59:06;;;;;;;4.03;1.80;;;;;;;;;;4999715;28;20036;-63
2022/09/21 04:01:33;;;;;;;4.20;1.90;;;;;;;;;;4998252;28;20042;-64
2022/09/21 04:03:59;;;;;;;4.88;1.83;;;;;;;;;;4999532;28;20614;-65
2022/09/21 04:06:26;;;;;;;4.75;2.22;;;;;;;;;;4997360;28;20124;-66
2022/09/21 04:08:53;;;;;;;4.53;2.15;;;;;;;;;;4980516;28;21837;-65
2022/09/21 04:11:21;;;;;;;5.80;2.60;;;;;;;;;;4993985;28;20100;-64
2022/09/21 04:14:00;;;;;;;7.90;2.42;;;;;;;;;;4993770;28;20091;-65
2022/09/21 04:16:28;;;;;;;6.78;2.33;;;;;;;;;;5006591;28;20076;-64
2022/09/21 04:18:54;;;;;;;6.22;2.65;;;;;;;;;;4998349;28;20069;-65
2022/09/21 04:21:21;;;;;;;4.60;2.08;;;;;;;;;;4998635;28;20132;-64
2022/09/21 04:23:48;;;;;;;5.85;2.47;;;;;;;;;;4995789;28;20116;-64
2022/09/21 04:26:34;;;;;;;7.38;2.40;;;;;;;;;;5012072;28;20037;-65
2022/09/21 04:29:01;;;;;;;5.55;2.30;;;;;;;;;;5015072;28;20494;-65
2022/09/21 04:31:28;;;;;;;4.63;2.20;;;;;;;;;;5018010;28;20489;-66
2022/09/21 04:33:56;;;;;;;7.93;2.40;;;;;;;;;;5018516;28;20513;-66
2022/09/21 04:36:23;;;;;;;8.23;2.00;;;;;;;;;;5009073;28;20042;-62
2022/09/21 04:38:50;;;;;;;10.95;3.10;;;;;;;;;;4996350;28;20052;-65
2022/09/21 04:41:17;;;;;;;11.73;4.60;;;;;;;;;;4997675;28;20553;-64
2022/09/21 04:43:45;;;;;;;17.90;7.63;;;;;;;;;;4995939;28;20602;-65
2022/09/21 04:46:13;;;;;;;23.58;9.40;;;;;;;;;;5013166;28;20037;-64
2022/09/21 04:48:40;;;;;;;25.95;9.05;;;;;;;;;;4995862;28;20034;-64
2022/09/21 04:51:07;;;;;;;18.77;7.45;;;;;;;;;;4996915;28;20100;-67
2022/09/21 04:53:34;;;;;;;17.67;6.53;;;;;;;;;;4995951;28;20717;-67
2022/09/21 04:56:01;;;;;;;7.75;3.78;;;;;;;;;;4999874;28;20054;-65
2022/09/21 04:58:28;;;;;;;6.22;3.53;;;;;;;;;;5001218;28;20057;-64
2022/09/21 05:00:55;;;;;;;6.57;3.10;;;;;;;;;;5000857;28;20121;-65
2022/09/21 05:03:22;;;;;;;7.05;3.10;;;;;;;;;;4997925;28;20092;-67
2022/09/21 05:05:49;;;;;;;6.05;2.63;;;;;;;;;;4997236;28;20490;-66
2022/09/21 05:08:17;;;;;;;7.38;2.90;;;;;;;;;;4996696;28;20480;-64
2022/09/21 05:10:44;;;;;;;5.40;2.60;;;;;;;;;;4995627;28;20041;-62
2022/09/21 05:13:10;;;;;;;7.57;2.58;;;;;;;;;;4996407;28;20054;-63
2022/09/21 05:15:38;;;;;;;9.85;2.70;;;;;;;;;;4994573;28;20049;-64
2022/09/21 05:18:05;;;;;;;6.38;2.78;;;;;;;;;;4997630;28;20941;-63
2022/09/21 05:20:31;;;;;;;9.23;2.60;;;;;;;;;;5008368;28;20037;-64
2022/09/21 05:23:01;;;;;;;8.35;2.60;;;;;;;;;;5015175;28;20493;-63
2022/09/21 05:25:28;;;;;;;4.68;2.22;;;;;;;;;;4996046;28;20081;-66
2022/09/21 05:27:54;;;;;;;7.32;2.30;;;;;;;;;;4997057;28;20045;-64
2022/09/21 05:30:21;;;;;;;6.93;2.53;;;;;;;;;;4995001;28;20531;-65
2022/09/21 05:32:55;;;;;;;10.20;2.40;;;;;;;;;;4995802;28;20624;-65
2022/09/21 05:35:27;;;;;;;7.55;2.65;;;;;;;;;;4996475;28;20050;-65
2022/09/21 05:37:54;;;;;;;9.30;2.70;;;;;;;;;;5014694;28;20269;-65
2022/09/21 05:40:21;;;;;;;6.68;3.13;;;;;;;;;;5021888;28;20434;-64
2022/09/21 05:42:47;;;;;;;7.25;3.00;;;;;;;;;;5013191;28;20376;-64
2022/09/21 05:45:18;;;;;;;7.88;3.13;;;;;;;;;;4997109;28;20480;-63
2022/09/21 05:47:47;;;;;;;10.77;3.33;;;;;;;;;;4995742;28;20892;-64
2022/09/21 05:50:25;;;;;;;7.88;3.25;;;;;;;;;;4996754;28;20030;-64
2022/09/21 05:52:51;;;;;;;8.90;3.10;;;;;;;;;;5026707;28;20053;-64
2022/09/21 05:55:37;;;;;;;6.80;2.70;;;;;;;;;;4995826;28;20050;-64
2022/09/21 05:58:16;;;;;;;8.32;2.88;;;;;;;;;;4994112;28;20037;-64
2022/09/21 06:01:00;;;;;;;5.22;2.88;;;;;;;;;;4995268;28;20050;-64
2022/09/21 06:03:28;;;;;;;6.15;2.88;;;;;;;;;;4995141;28;20037;-62
2022/09/21 06:05:55;;;;;;;6.10;2.97;;;;;;;;;;4996438;28;20104;-64
2022/09/21 06:08:22;;;;;;;9.30;3.25;;;;;;;;;;4997194;28;20117;-64
2022/09/21 06:10:49;;;;;;;7.13;3.20;;;;;;;;;;4999007;28;20364;-63
2022/09/21 06:13:16;;;;;;;7.95;2.83;;;;;;;;;;4999758;28;20050;-64
2022/09/21 06:15:42;;;;;;;6.22;3.10;;;;;;;;;;4999605;28;20124;-62
2022/09/21 06:18:09;;;;;;;12.05;3.60;;;;;;;;;;5000114;28;20132;-63
2022/09/21 06:20:36;;;;;;;5.57;2.90;;;;;;;;;;4998234;28;20133;-63
2022/09/21 06:23:12;;;;;;;7.85;3.28;;;;;;;;;;5000649;28;20038;-63
2022/09/21 06:25:39;;;;;;;7.72;2.67;;;;;;;;;;4999961;28;20104;-64
2022/09/21 06:28:10;;;;;;;5.63;2.50;;;;;;;;;;4998777;28;20042;-62
2022/09/21 06:30:38;;;;;;;6.32;3.05;;;;;;;;;;4997786;28;20052;-64
2022/09/21 06:33:06;;;;;;;7.32;3.13;;;;;;;;;;4999374;28;20041;-64
2022/09/21 06:35:33;;;;;;;10.80;3.20;;;;;;;;;;4998189;28;20054;-63
2022/09/21 06:38:00;;;;;;;11.27;3.40;;;;;;;;;;4999302;28;20355;-64
2022/09/21 06:40:28;;;;;;;6.10;2.83;;;;;;;;;;4997758;28;20053;-64
2022/09/21 06:42:57;;;;;;;8.30;3.45;;;;;;;;;;4994927;28;21128;-65
2022/09/21 06:45:25;;;;;;;8.20;3.42;;;;;;;;;;5018801;28;20037;-65
2022/09/21 06:47:52;;;;;;;8.57;3.28;;;;;;;;;;5019206;28;20052;-65
2022/09/21 06:50:19;;;;;;;6.55;3.13;;;;;;;;;;5017086;28;20520;-65
2022/09/21 06:52:46;;;;;;;7.57;2.92;;;;;;;;;;5001126;28;20041;-65
2022/09/21 06:55:12;;;;;;;5.35;2.63;;;;;;;;;;5018280;28;20037;-65
2022/09/21 06:57:39;;;;;;;9.38;3.20;;;;;;;;;;5017391;28;20431;-64
2022/09/21 07:00:07;;;;;;;5.25;2.50;;;;;;;;;;5018496;28;21066;-65
2022/09/21 07:02:34;;;;;;;6.97;2.70;;;;;;;;;;4999188;28;20041;-63
2022/09/21 07:05:02;;;;;;;5.97;2.80;;;;;;;;;;4999291;28;20057;-64
2022/09/21 07:07:48;;;;;;;6.95;2.90;;;;;;;;;;4997447;28;20053;-64
2022/09/21 07:10:15;;;;;;;7.35;3.00;;;;;;;;;;4998726;28;20110;-62
2022/09/21 07:12:42;;;;;;;6.72;2.55;;;;;;;;;;4998815;28;20038;-63
2022/09/21 07:15:09;;;;;;;6.85;3.20;;;;;;;;;;5000234;28;20050;-61
2022/09/21 07:17:37;;;;;;;7.95;2.80;;;;;;;;;;4999433;28;20044;-65
2022/09/21 07:20:04;;;;;;;9.48;2.97;;;;;;;;;;4994028;28;20119;-63
2022/09/21 07:22:32;;;;;;;7.60;3.00;;;;;;;;;;5001903;28;20073;-63
2022/09/21 07:24:58;;;;;;;8.18;2.80;;;;;;;;;;5001471;28;20388;-62
2022/09/21 07:27:26;;;;;;;5.70;3.05;;;;;;;;;;5002709;28;20522;-64
2022/09/21 07:29:52;;;;;;;11.35;2.75;;;;;;;;;;5001046;28;20573;-63
2022/09/21 07:32:19;;;;;;;6.65;3.08;;;;;;;;;;5001548;28;20514;-64
2022/09/21 07:34:46;;;;;;;8.23;2.70;;;;;;;;;;5002474;28;20056;-63
2022/09/21 07:37:14;;;;;;;7.55;3.60;;;;;;;;;;5000488;28;20123;-64
2022/09/21 07:39:40;;;;;;;11.65;3.22;;;;;;;;;;4998630;28;20160;-64
2022/09/21 07:42:07;;;;;;;6.03;2.83;;;;;;;;;;4999108;28;20062;-63
2022/09/21 07:44:34;;;;;;;8.90;3.30;;;;;;;;;;4997839;28;20104;-63
2022/09/21 07:47:02;;;;;;;8.20;2.97;;;;;;;;;;4990055;28;20041;-63
2022/09/21 07:49:28;;;;;;;16.02;3.65;;;;;;;;;;5006111;28;20128;-63
2022/09/21 07:51:56;;;;;;;6.85;3.42;;;;;;;;;;4998292;28;20083;-64
2022/09/21 07:54:22;;;;;;;9.80;3.53;;;;;;;;;;4996767;28;20612;-65
2022/09/21 07:59:34;;;;;;;8.98;3.33;;;;;;;;;;4997462;28;20461;-64
2022/09/21 08:02:00;;;;;;;6.35;3.15;;;;;;;;;;4997044;28;20037;-63
2022/09/21 08:04:27;;;;;;;10.90;3.38;;;;;;;;;;4997009;28;20057;-64
2022/09/21 08:06:54;;;;;;;7.25;3.13;;;;;;;;;;4999242;28;20042;-62
2022/09/21 08:09:21;;;;;;;9.07;2.97;;;;;;;;;;4998999;28;20499;-64
2022/09/21 08:11:48;;;;;;;10.25;3.33;;;;;;;;;;4997636;28;20498;-64
2022/09/21 08:14:18;;;;;;;6.60;3.47;;;;;;;;;;4980440;28;20045;-64
2022/09/21 08:16:45;;;;;;;6.82;3.00;;;;;;;;;;5017285;28;20037;-63
2022/09/21 08:19:12;;;;;;;7.68;3.22;;;;;;;;;;5010779;28;20096;-62
2022/09/21 08:21:39;;;;;;;8.93;3.33;;;;;;;;;;4995923;28;20490;-64
2022/09/21 08:24:06;;;;;;;7.80;4.10;;;;;;;;;;4997640;28;20481;-66
2022/09/21 08:26:33;;;;;;;7.80;4.10;;;;;;;;;;4995838;28;20041;-63
2022/09/21 08:29:00;;;;;;;12.73;5.05;;;;;;;;;;4996041;28;20491;-65
2022/09/21 08:31:27;;;;;;;11.90;6.07;;;;;;;;;;4995109;28;20042;-65
2022/09/21 08:33:55;;;;;;;13.35;6.40;;;;;;;;;;4990673;28;20041;-64
2022/09/21 08:36:22;;;;;;;14.77;6.45;;;;;;;;;;4998824;28;20054;-65
2022/09/21 08:38:49;;;;;;;12.32;5.68;;;;;;;;;;4995747;28;20092;-65
2022/09/21 08:41:22;;;;;;;10.57;4.57;;;;;;;;;;4995169;28;20065;-65
2022/09/21 08:44:00;;;;;;;14.10;4.93;;;;;;;;;;4995701;28;20045;-63
2022/09/21 08:46:28;;;;;;;13.68;4.53;;;;;;;;;;4994728;28;20034;-63
2022/09/21 08:48:55;;;;;;;7.55;4.07;;;;;;;;;;4995984;28;20045;-64
2022/09/21 08:51:24;;;;;;;8.00;3.78;;;;;;;;;;4993539;28;20300;-63
2022/09/21 08:53:52;;;;;;;9.15;3.80;;;;;;;;;;4995722;28;20084;-64
2022/09/21 08:56:20;;;;;;;7.97;3.97;;;;;;;;;;4978757;28;20040;-68
2022/09/21 08:58:47;;;;;;;8.30;3.85;;;;;;;;;;4995037;28;20045;-61
2022/09/21 09:01:20;;;;;;;6.60;3.67;;;;;;;;;;4994999;28;20083;-64
2022/09/21 09:03:56;;;;;;;7.30;3.75;;;;;;;;;;5010455;28;20037;-64
2022/09/21 09:06:39;;;;;;;7.65;3.80;;;;;;;;;;4995162;28;21678;-65
2022/09/21 09:09:17;;;;;;;8.05;3.95;;;;;;;;;;5013728;28;20107;-62
2022/09/21 09:11:51;;;;;;;10.82;3.50;;;;;;;;;;4994456;28;20049;-64
2022/09/21 09:14:36;;;;;;;8.60;3.85;;;;;;;;;;4995313;28;20499;-64
2022/09/21 09:17:03;;;;;;;8.10;3.10;;;;;;;;;;5000729;28;20068;-64
2022/09/21 09:19:41;;;;;;;10.50;3.88;;;;;;;;;;4996812;28;20052;-63
2022/09/21 09:22:11;;;;;;;7.88;3.60;;;;;;;;;;4982166;28;20041;-63
2022/09/21 09:24:52;;;;;;;9.48;3.63;;;;;;;;;;4996513;28;20079;-63
2022/09/21 09:27:23;;;;;;;11.52;3.78;;;;;;;;;;4996882;28;20145;-64
2022/09/21 09:30:08;;;;;;;6.88;3.30;;;;;;;;;;5010570;28;20134;-63
2022/09/21 09:32:44;;;;;;;9.25;3.80;;;;;;;;;;4988494;28;20482;-63
2022/09/21 09:35:18;;;;;;;9.90;4.00;;;;;;;;;;4995497;28;20100;-63
2022/09/21 09:37:45;;;;;;;7.38;3.80;;;;;;;;;;4996647;28;20048;-63
2022/09/21 09:40:13;;;;;;;8.23;3.95;;;;;;;;;;4975214;28;20068;-62
2022/09/21 09:42:51;;;;;;;9.45;4.15;;;;;;;;;;4995673;28;20041;-63
2022/09/21 09:45:21;;;;;;;6.35;4.10;;;;;;;;;;4988670;28;20046;-64
2022/09/21 09:47:59;;;;;;;7.82;3.75;;;;;;;;;;4998598;28;20037;-64
2022/09/21 09:50:32;;;;;;;8.27;3.70;;;;;;;;;;4997712;28;20054;-64
2022/09/21 09:53:07;;;;;;;7.82;4.07;;;;;;;;;;4999499;28;20438;-64
2022/09/21 09:55:37;;;;;;;6.95;3.78;;;;;;;;;;4998374;28;20048;-64
2022/09/21 09:58:04;;;;;;;7.95;3.97;;;;;;;;;;4998631;28;20038;-63
2022/09/21 10:00:30;;;;;;;9.68;4.15;;;;;;;;;;4984050;28;20515;-64
2022/09/21 10:02:58;;;;;;;8.15;4.18;;;;;;;;;;5000441;28;20104;-63
2022/09/21 10:05:31;;;;;;;8.38;3.90;;;;;;;;;;4999545;28;20037;-63
2022/09/21 10:08:00;;;;;;;4.95;3.05;;;;;;;;;;4999615;28;20053;-63
2022/09/21 10:10:33;;;;;;;6.95;3.50;;;;;;;;;;4997162;28;20112;-64
2022/09/21 10:13:27;;;;;;;6.53;3.20;;;;;;;;;;4999518;28;20049;-64
2022/09/21 10:16:00;;;;;;;6.50;2.95;;;;;;;;;;5004624;28;20114;-63
2022/09/21 10:18:34;;;;;;;7.00;2.90;;;;;;;;;;5000107;28;20066;-64
2022/09/21 10:21:03;;;;;;;5.57;2.80;;;;;;;;;;4998628;28;20040;-63
2022/09/21 10:23:31;;;;;;;7.03;2.65;;;;;;;;;;4998922;28;20048;-61
2022/09/21 10:26:17;;;;;;;5.38;2.60;;;;;;;;;;4999816;28;20058;-63
2022/09/21 10:28:58;;;;;;;5.40;2.50;;;;;;;;;;5002109;28;20038;-66
2022/09/21 10:31:26;;;;;;;6.68;2.70;;;;;;;;;;5011901;28;20597;-64
2022/09/21 10:33:54;;;;;;;5.55;2.42;;;;;;;;;;5018845;28;20084;-63
2022/09/21 10:36:30;;;;;;;5.65;2.88;;;;;;;;;;5001293;28;20046;-64
2022/09/21 10:38:56;;;;;;;6.05;2.58;;;;;;;;;;5000035;28;20041;-63
2022/09/21 10:41:23;;;;;;;10.82;2.72;;;;;;;;;;4999861;28;20431;-64
2022/09/21 10:43:50;;;;;;;6.65;2.92;;;;;;;;;;5015933;28;20421;-64
2022/09/21 10:46:17;;;;;;;4.65;2.50;;;;;;;;;;5000860;28;20071;-63
2022/09/21 10:48:47;;;;;;;5.13;2.60;;;;;;;;;;4999581;28;20053;-64
2022/09/21 10:51:25;;;;;;;5.47;2.80;;;;;;;;;;5030768;28;20091;-64
2022/09/21 10:53:52;;;;;;;5.93;2.72;;;;;;;;;;4998903;28;20046;-61
2022/09/21 10:56:19;;;;;;;6.00;2.63;;;;;;;;;;5000853;28;20749;-63
2022/09/21 10:59:04;;;;;;;5.03;2.70;;;;;;;;;;5001959;28;20105;-63
2022/09/21 11:01:31;;;;;;;4.82;2.10;;;;;;;;;;5000720;28;20046;-64
2022/09/21 11:04:05;;;;;;;5.65;2.65;;;;;;;;;;5003328;28;20139;-61
2022/09/21 11:06:36;;;;;;;5.75;2.70;;;;;;;;;;5007477;28;20139;-64
2022/09/21 11:09:09;;;;;;;5.82;2.40;;;;;;;;;;5004494;28;20172;-63
2022/09/21 11:11:44;;;;;;;9.88;2.60;;;;;;;;;;5004543;28;20045;-64
2022/09/21 11:14:34;;;;;;;4.60;2.10;;;;;;;;;;4999630;28;20038;-62
2022/09/21 11:17:13;;;;;;;5.40;2.20;;;;;;;;;;4994042;28;20482;-61
2022/09/21 11:19:44;;;;;;;7.70;2.17;;;;;;;;;;4997319;28;21162;-65
2022/09/21 11:22:22;;;;;;;5.22;2.30;;;;;;;;;;5014201;28;20061;-63
2022/09/21 11:24:55;;;;;;;3.92;2.13;;;;;;;;;;5011703;28;20029;-63
2022/09/21 11:27:27;;;;;;;6.13;2.38;;;;;;;;;;5004182;28;20030;-61
2022/09/21 11:30:01;;;;;;;3.53;1.75;;;;;;;;;;4998760;28;20586;-61
2022/09/21 11:32:28;;;;;;;4.03;2.03;;;;;;;;;;5010011;28;20034;-63
2022/09/21 11:35:14;;;;;;;4.65;1.98;;;;;;;;;;5013244;28;20054;-64
2022/09/21 11:38:05;;;;;;;7.53;2.10;;;;;;;;;;5006427;28;20339;-65
2022/09/21 11:40:46;;;;;;;4.75;1.95;;;;;;;;;;5012604;28;20125;-64
2022/09/21 11:43:31;;;;;;;4.60;2.28;;;;;;;;;;5012152;28;20049;-63
2022/09/21 11:46:09;;;;;;;4.75;2.13;;;;;;;;;;5012619;28;20072;-64
2022/09/21 11:48:41;;;;;;;5.70;2.10;;;;;;;;;;5012333;28;20052;-64
2022/09/21 11:51:16;;;;;;;4.15;1.63;;;;;;;;;;5013753;28;20573;-66
2022/09/21 11:53:53;;;;;;;4.63;2.28;;;;;;;;;;5013969;28;20056;-64
2022/09/21 11:56:25;;;;;;;4.97;2.10;;;;;;;;;;5016804;28;20234;-65
2022/09/21 11:59:15;;;;;;;4.43;2.38;;;;;;;;;;5032263;28;20104;-65
2022/09/21 12:01:42;;;;;;;4.88;2.28;;;;;;;;;;5030509;28;21123;-64
2022/09/21 12:04:31;;;;;;;4.57;2.05;;;;;;;;;;5032124;28;20404;-64
2022/09/21 12:07:03;;;;;;;5.88;2.83;;;;;;;;;;5032235;28;20032;-64
2022/09/21 12:09:48;;;;;;;5.15;2.45;;;;;;;;;;5016623;28;20095;-63
2022/09/21 12:12:32;;;;;;;4.72;2.38;;;;;;;;;;5001559;28;20050;-61
2022/09/21 12:15:18;;;;;;;6.38;2.08;;;;;;;;;;4996229;28;20068;-63
2022/09/21 12:17:44;;;;;;;4.93;2.13;;;;;;;;;;4991868;28;20042;-58
2022/09/21 12:20:14;;;;;;;10.13;2.33;;;;;;;;;;5012668;28;20088;-61
2022/09/21 12:22:43;;;;;;;4.07;1.85;;;;;;;;;;4996047;28;20069;-62
2022/09/21 12:25:34;;;;;;;4.95;2.10;;;;;;;;;;5012257;28;20554;-62
2022/09/21 12:28:08;;;;;;;4.47;2.08;;;;;;;;;;4996162;28;20388;-60
2022/09/21 12:30:37;;;;;;;4.20;1.95;;;;;;;;;;4995898;28;20050;-61
2022/09/21 12:33:26;;;;;;;4.78;2.00;;;;;;;;;;4996592;28;20034;-61
2022/09/21 12:35:58;;;;;;;5.10;2.58;;;;;;;;;;5010580;28;20045;-64
2022/09/21 12:39:00;;;;;;;7.47;1.77;;;;;;;;;;4999582;28;20125;-64
2022/09/21 12:41:39;;;;;;;6.30;2.50;;;;;;;;;;4919894;28;20094;-64
2022/09/21 12:44:18;;;;;;;6.70;2.38;;;;;;;;;;4998962;28;20041;-63
2022/09/21 12:47:08;;;;;;;4.25;2.08;;;;;;;;;;5012669;28;20042;-67
2022/09/21 12:49:40;;;;;;;6.55;2.35;;;;;;;;;;4986781;28;20045;-65
2022/09/21 12:52:07;;;;;;;6.28;2.40;;;;;;;;;;4995873;28;20045;-66
2022/09/21 12:54:52;;;;;;;7.03;2.13;;;;;;;;;;4994134;28;20046;-64
2022/09/21 12:57:46;;;;;;;4.22;2.13;;;;;;;;;;4995513;28;20161;-63
2022/09/21 13:00:13;;;;;;;;;;;;;;;;;;4996490;28;20141;-63
2022/09/21 13:02:48;;;;;;;5.53;2.40;;;;;;;;;;4993850;28;19925;-62
2022/09/21 13:05:23;;;;;;;8.15;2.55;;;;;;;;;;4995873;28;20044;-63
2022/09/21 13:08:16;;;;;;;9.63;2.60;;;;;;;;;;5026852;28;20125;-63
2022/09/21 13:11:06;;;;;;;8.40;2.70;;;;;;;;;;4993833;28;20038;-65
2022/09/21 13:13:51;;;;;;;4.95;2.40;;;;;;;;;;4993782;28;20446;-65
2022/09/21 13:16:26;;;;;;;8.95;2.40;;;;;;;;;;4995753;28;20065;-66
2022/09/21 13:19:00;;;;;;;5.85;2.72;;;;;;;;;;4996577;28;20049;-64
2022/09/21 13:21:31;;;;;;;7.00;2.80;;;;;;;;;;4994434;28;20046;-64
2022/09/21 13:23:59;;;;;;;6.53;2.78;;;;;;;;;;4996076;28;20067;-61
2022/09/21 13:26:32;;;;;;;9.27;3.30;;;;;;;;;;4995534;28;20042;-63
2022/09/21 13:29:02;;;;;;;6.20;3.20;;;;;;;;;;4997509;28;20042;-64
2022/09/21 13:31:46;;;;;;;6.65;3.03;;;;;;;;;;5012868;28;20262;-64
2022/09/21 13:34:22;;;;;;;6.35;2.65;;;;;;;;;;4999800;28;20108;-62
2022/09/21 13:37:07;;;;;;;7.90;2.80;;;;;;;;;;5016299;28;20042;-64
2022/09/21 13:39:33;;;;;;;9.20;2.85;;;;;;;;;;5007116;28;20041;-64
2022/09/21 13:42:21;;;;;;;9.93;2.65;;;;;;;;;;5029583;28;20050;-63
2022/09/21 13:44:48;;;;;;;5.32;2.85;;;;;;;;;;5005604;28;20111;-66
2022/09/21 13:47:27;;;;;;;7.13;2.97;;;;;;;;;;4998433;28;20259;-64
2022/09/21 13:49:54;;;;;;;6.55;3.08;;;;;;;;;;5029565;28;20050;-63
2022/09/21 13:52:41;;;;;;;5.72;2.80;;;;;;;;;;4993868;28;20034;-65
2022/09/21 13:55:19;;;;;;;6.60;2.92;;;;;;;;;;5004735;28;20394;-64
2022/09/21 13:57:48;;;;;;;6.35;2.67;;;;;;;;;;5012870;28;20107;-64
2022/09/21 14:00:18;;;;;;;9.30;2.90;;;;;;;;;;5017630;28;20033;-64
2022/09/21 14:02:53;;;;;;;10.48;3.35;;;;;;;;;;4994624;28;20041;-65
2022/09/21 14:05:20;;;;;;;7.63;3.00;;;;;;;;;;5008793;28;20042;-64
2022/09/21 14:07:47;;;;;;;5.78;2.72;;;;;;;;;;4995216;28;20045;-64
2022/09/21 14:10:17;;;;;;;11.35;3.67;;;;;;;;;;4995887;28;20092;-64
2022/09/21 14:12:44;;;;;;;12.20;3.20;;;;;;;;;;4993153;28;20050;-64
2022/09/21 14:15:17;;;;;;;7.10;2.85;;;;;;;;;;4996789;28;20065;-63
2022/09/21 14:17:44;;;;;;;7.82;3.42;;;;;;;;;;4995450;28;20026;-62
2022/09/21 14:20:29;;;;;;;6.55;3.08;;;;;;;;;;4995544;28;20033;-61
2022/09/21 14:23:27;;;;;;;7.32;3.10;;;;;;;;;;4994765;28;20689;-63
2022/09/21 14:26:00;;;;;;;6.32;3.10;;;;;;;;;;4958912;28;20046;-63
2022/09/21 14:28:37;;;;;;;4.45;2.45;;;;;;;;;;4999219;28;20123;-64
2022/09/21 14:31:29;;;;;;;7.28;2.72;;;;;;;;;;5000949;28;20049;-64
2022/09/21 14:33:58;;;;;;;7.20;3.33;;;;;;;;;;4997931;28;20041;-63
2022/09/21 14:36:33;;;;;;;11.10;3.00;;;;;;;;;;5004349;28;20053;-65
2022/09/21 14:39:02;;;;;;;7.05;2.90;;;;;;;;;;5016090;28;20050;-64
2022/09/21 14:41:33;;;;;;;6.30;3.03;;;;;;;;;;4996186;28;20045;-62
2022/09/21 14:44:00;;;;;;;4.45;2.85;;;;;;;;;;5014170;28;20115;-64
2022/09/21 14:46:33;;;;;;;8.77;3.42;;;;;;;;;;5013848;28;20129;-64
2022/09/21 14:48:59;;;;;;;8.18;3.40;;;;;;;;;;4996390;28;20411;-64
2022/09/21 14:51:30;;;;;;;6.13;3.08;;;;;;;;;;4997264;28;20417;-64
2022/09/21 14:54:07;;;;;;;6.55;2.97;;;;;;;;;;5013416;28;20045;-63
2022/09/21 14:56:55;;;;;;;9.40;3.58;;;;;;;;;;5006079;28;20053;-64
2022/09/21 14:59:40;;;;;;;6.85;3.13;;;;;;;;;;5010698;28;20045;-61
2022/09/21 15:02:16;;;;;;;5.47;2.88;;;;;;;;;;5010893;28;20065;-65
2022/09/21 15:04:58;;;;;;;4.45;2.58;;;;;;;;;;4999961;28;20042;-63
2022/09/21 15:13:22;;;;;;;6.22;2.35;;;;;;;;;;4998989;28;20107;-64
2022/09/21 15:16:08;;;;;;;8.32;3.10;;;;;;;;;;5020558;28;20049;-63
2022/09/21 15:18:40;;;;;;;4.95;2.78;;;;;;;;;;5018892;28;20077;-63
2022/09/21 15:21:19;;;;;;;4.85;2.63;;;;;;;;;;5001303;28;20414;-64